Time;durP1;ratioP1;P1;durP2;ratioP2;P2;SDS_P1;SDS_P2;PMS_P1;PMS_P2;Temp;Humidity;BMP_temperature;BMP_pressure;BME280_temperature;BME280_humidity;BME280_pressure;Samples;Min_cycle;Max_cycle;Signal;HPM_P1;HPM_P2
2023/08/20 00:00:45;;;;;;;;;;;17.10;99.90;;;;;;5096331;28;19976;-47
2023/08/20 00:03:12;;;;;;;;;;;17.10;99.90;;;;;;5096185;28;19979;-47
2023/08/20 00:05:38;;;;;;;;;;;17.10;99.90;;;;;;5077834;28;19982;-47
2023/08/20 00:08:04;;;;;;;;;;;17.10;99.90;;;;;;5096331;28;19924;-47
2023/08/20 00:10:29;;;;;;;;;;;17.10;99.90;;;;;;5096312;28;19930;-48
2023/08/20 00:12:55;;;;;;;;;;;17.20;99.90;;;;;;5078215;28;20019;-47
2023/08/20 00:15:26;;;;;;;;;;;17.20;99.90;;;;;;5078305;28;19924;-48
2023/08/20 00:17:52;;;;;;;;;;;17.20;99.90;;;;;;5096069;28;19978;-48
2023/08/20 00:20:18;;;;;;;;;;;17.20;99.90;;;;;;5095890;28;20436;-48
2023/08/20 00:22:45;;;;;;;;;;;17.30;99.90;;;;;;5095956;28;19928;-47
2023/08/20 00:25:11;;;;;;;;;;;17.20;99.90;;;;;;5096090;28;19930;-48
2023/08/20 00:27:38;;;;;;;;;;;17.20;99.90;;;;;;5095923;28;19928;-47
2023/08/20 00:30:04;;;;;;;;;;;17.20;99.90;;;;;;5096022;28;20279;-47
2023/08/20 00:32:29;;;;;;;;;;;17.20;99.90;;;;;;5077940;28;19931;-48
2023/08/20 00:34:55;;;;;;;;;;;17.20;99.90;;;;;;5096153;28;20332;-48
2023/08/20 00:37:21;;;;;;;;;;;17.20;99.90;;;;;;5095846;28;19931;-47
2023/08/20 00:39:47;;;;;;;;;;;17.10;99.90;;;;;;5095772;28;20321;-48
2023/08/20 00:42:15;;;;;;;;;;;17.10;99.90;;;;;;5095670;28;19954;-48
2023/08/20 00:44:44;;;;;;;;;;;17.10;99.90;;;;;;5095553;28;20263;-47
2023/08/20 00:47:09;;;;;;;;;;;17.10;99.90;;;;;;5095506;28;19925;-47
2023/08/20 00:49:35;;;;;;;;;;;17.10;99.90;;;;;;5095619;28;19924;-47
2023/08/20 00:52:01;;;;;;;;;;;17.10;99.90;;;;;;5095694;28;19925;-48
2023/08/20 00:54:27;;;;;;;;;;;17.10;99.90;;;;;;5095408;28;19928;-48
2023/08/20 00:56:53;;;;;;;;;;;17.10;99.90;;;;;;5077536;28;19966;-47
2023/08/20 00:59:20;;;;;;;;;;;17.10;99.90;;;;;;5095243;28;19975;-48
2023/08/20 01:01:45;;;;;;;;;;;17.10;99.90;;;;;;5095076;28;19924;-48
2023/08/20 01:04:11;;;;;;;;;;;17.10;99.90;;;;;;5094290;28;19924;-48
2023/08/20 01:06:40;;;;;;;;;;;17.10;99.90;;;;;;5095085;28;20283;-47
2023/08/20 01:09:23;;;;;;;;;;;17.10;99.90;;;;;;5095521;28;19924;-47
2023/08/20 01:11:54;;;;;;;;;;;17.10;99.90;;;;;;5095206;28;19928;-47
2023/08/20 01:14:20;;;;;;;;;;;17.00;99.90;;;;;;5094888;28;19924;-47
2023/08/20 01:16:46;;;;;;;;;;;17.00;99.90;;;;;;5076888;28;19935;-47
2023/08/20 01:19:15;;;;;;;;;;;16.90;99.90;;;;;;5094922;28;19924;-47
2023/08/20 01:21:47;;;;;;;;;;;16.90;99.90;;;;;;5094688;28;20398;-47
2023/08/20 01:24:21;;;;;;;;;;;16.80;99.90;;;;;;5094955;28;19924;-47
2023/08/20 01:27:03;;;;;;;;;;;16.80;99.90;;;;;;5076593;28;20064;-47
2023/08/20 01:29:29;;;;;;;;;;;16.80;99.90;;;;;;5094889;28;19924;-47
2023/08/20 01:31:55;;;;;;;;;;;16.70;99.90;;;;;;5094820;28;20407;-48
2023/08/20 01:34:21;;;;;;;;;;;16.70;99.90;;;;;;5094686;28;20284;-48
2023/08/20 01:36:47;;;;;;;;;;;16.70;99.90;;;;;;5094674;28;19954;-47
2023/08/20 01:39:13;;;;;;;;;;;16.80;99.90;;;;;;5094538;28;19978;-47
2023/08/20 01:41:40;;;;;;;;;;;16.70;99.90;;;;;;5094907;28;19978;-47
2023/08/20 01:44:06;;;;;;;;;;;16.70;99.90;;;;;;5094450;28;20019;-47
2023/08/20 01:46:31;;;;;;;;;;;16.70;99.90;;;;;;5094470;28;20370;-48
2023/08/20 01:48:57;;;;;;;;;;;16.70;99.90;;;;;;5094762;28;20023;-48
2023/08/20 01:51:22;;;;;;;;;;;16.70;99.90;;;;;;5094507;28;20257;-48
2023/08/20 01:53:48;;;;;;;;;;;16.70;99.90;;;;;;5094270;28;19969;-47
2023/08/20 01:56:14;;;;;;;;;;;16.70;99.90;;;;;;5094440;28;19924;-48
2023/08/20 01:58:39;;;;;;;;;;;16.70;99.90;;;;;;5094784;28;19924;-47
2023/08/20 02:01:05;;;;;;;;;;;16.70;99.90;;;;;;5076619;28;20264;-47
2023/08/20 02:03:31;;;;;;;;;;;16.70;99.90;;;;;;5094157;28;19924;-48
2023/08/20 02:05:56;;;;;;;;;;;16.70;99.90;;;;;;5094401;28;19927;-48
2023/08/20 02:08:22;;;;;;;;;;;16.60;99.90;;;;;;5094085;28;19931;-47
2023/08/20 02:10:48;;;;;;;;;;;16.60;99.90;;;;;;5094345;28;20378;-47
2023/08/20 02:13:13;;;;;;;;;;;16.70;99.90;;;;;;5094142;28;20334;-47
2023/08/20 02:15:39;;;;;;;;;;;16.70;99.90;;;;;;5093897;28;20294;-47
2023/08/20 02:18:04;;;;;;;;;;;16.70;99.90;;;;;;5094103;28;19924;-48
2023/08/20 02:20:30;;;;;;;;;;;16.70;99.90;;;;;;5094006;28;19924;-47
2023/08/20 02:22:56;;;;;;;;;;;16.70;99.90;;;;;;5093982;28;20375;-47
2023/08/20 02:25:22;;;;;;;;;;;16.70;99.90;;;;;;5093853;28;20701;-47
2023/08/20 02:27:48;;;;;;;;;;;16.70;99.90;;;;;;5094002;28;19924;-48
2023/08/20 02:30:13;;;;;;;;;;;16.80;99.90;;;;;;5093920;28;20018;-47
2023/08/20 02:32:39;;;;;;;;;;;16.80;99.90;;;;;;5094343;28;19924;-47
2023/08/20 02:35:05;;;;;;;;;;;16.80;99.90;;;;;;5093974;28;20394;-47
2023/08/20 02:37:33;;;;;;;;;;;16.80;99.90;;;;;;5093804;28;19930;-47
2023/08/20 02:39:59;;;;;;;;;;;16.70;99.90;;;;;;5093676;28;20018;-48
2023/08/20 02:42:24;;;;;;;;;;;16.60;99.90;;;;;;5094153;28;19971;-47
2023/08/20 02:44:50;;;;;;;;;;;16.50;99.90;;;;;;5093886;28;19924;-48
2023/08/20 02:47:15;;;;;;;;;;;16.50;99.90;;;;;;5093850;28;19924;-47
2023/08/20 02:49:41;;;;;;;;;;;16.40;99.90;;;;;;5093814;28;19924;-47
2023/08/20 02:52:06;;;;;;;;;;;16.30;99.90;;;;;;5093906;28;19963;-48
2023/08/20 02:54:32;;;;;;;;;;;16.20;99.90;;;;;;5093563;28;19924;-47
2023/08/20 02:56:58;;;;;;;;;;;16.20;99.90;;;;;;5093831;28;20274;-48
2023/08/20 02:59:24;;;;;;;;;;;16.20;99.90;;;;;;5092905;28;19928;-47
2023/08/20 03:01:49;;;;;;;;;;;16.20;99.90;;;;;;5093807;28;19925;-47
2023/08/20 03:04:15;;;;;;;;;;;16.20;99.90;;;;;;5093444;28;19930;-48
2023/08/20 03:06:41;;;;;;;;;;;16.20;99.90;;;;;;5094276;28;19924;-46
2023/08/20 03:09:06;;;;;;;;;;;16.20;99.90;;;;;;5093331;28;19935;-47
2023/08/20 03:11:32;;;;;;;;;;;16.20;99.90;;;;;;5093931;28;19976;-47
2023/08/20 03:13:57;;;;;;;;;;;16.30;99.90;;;;;;5093599;28;20366;-47
2023/08/20 03:16:23;;;;;;;;;;;16.30;99.90;;;;;;5093778;28;19924;-47
2023/08/20 03:18:48;;;;;;;;;;;16.40;99.90;;;;;;5093526;28;19994;-48
2023/08/20 03:21:14;;;;;;;;;;;16.40;99.90;;;;;;5093414;28;19924;-47
2023/08/20 03:23:39;;;;;;;;;;;16.50;99.90;;;;;;5093392;28;19932;-47
2023/08/20 03:26:05;;;;;;;;;;;16.50;99.90;;;;;;5075758;28;19931;-47
2023/08/20 03:28:30;;;;;;;;;;;16.50;99.90;;;;;;5096790;28;19928;-47
2023/08/20 03:30:59;;;;;;;;;;;16.40;99.90;;;;;;5096960;28;19935;-47
2023/08/20 03:33:24;;;;;;;;;;;16.40;99.90;;;;;;5078921;28;20375;-47
2023/08/20 03:35:50;;;;;;;;;;;16.40;99.90;;;;;;5096759;28;19977;-47
2023/08/20 03:38:15;;;;;;;;;;;16.40;99.90;;;;;;5096836;28;19931;-47
2023/08/20 03:40:41;;;;;;;;;;;16.40;99.90;;;;;;5097301;28;19931;-48
2023/08/20 03:43:06;;;;;;;;;;;16.40;99.90;;;;;;5078963;28;20322;-47
2023/08/20 03:45:32;;;;;;;;;;;16.40;99.90;;;;;;5097164;28;19924;-47
2023/08/20 03:47:58;;;;;;;;;;;16.40;99.90;;;;;;5096772;28;20325;-48
2023/08/20 03:50:23;;;;;;;;;;;16.40;99.90;;;;;;5096730;28;20431;-47
2023/08/20 03:52:49;;;;;;;;;;;16.40;99.90;;;;;;5096483;28;20390;-47
2023/08/20 03:55:14;;;;;;;;;;;16.40;99.90;;;;;;5078704;28;20015;-47
2023/08/20 03:57:40;;;;;;;;;;;16.40;99.90;;;;;;5096459;28;20371;-47
2023/08/20 04:00:08;;;;;;;;;;;16.40;99.90;;;;;;5096455;28;19924;-47
2023/08/20 04:02:34;;;;;;;;;;;16.40;99.90;;;;;;5078877;28;19931;-47
2023/08/20 04:05:00;;;;;;;;;;;16.50;99.90;;;;;;5078034;28;20283;-48
2023/08/20 04:07:25;;;;;;;;;;;16.40;99.90;;;;;;5095936;28;19931;-47
2023/08/20 04:09:51;;;;;;;;;;;16.40;99.90;;;;;;5096364;28;20256;-47
2023/08/20 04:12:16;;;;;;;;;;;16.40;99.90;;;;;;5096520;28;19928;-47
2023/08/20 04:14:42;;;;;;;;;;;16.40;99.90;;;;;;5096339;28;19928;-48
2023/08/20 04:17:07;;;;;;;;;;;16.40;99.90;;;;;;5096100;28;19928;-49
2023/08/20 04:19:33;;;;;;;;;;;16.30;99.90;;;;;;5078219;28;19930;-47
2023/08/20 04:21:58;;;;;;;;;;;16.30;99.90;;;;;;5077954;28;19973;-47
2023/08/20 04:24:24;;;;;;;;;;;16.30;99.90;;;;;;5077707;28;20022;-47
2023/08/20 04:26:49;;;;;;;;;;;16.30;99.90;;;;;;5095993;28;19924;-47
2023/08/20 04:29:15;;;;;;;;;;;16.30;99.90;;;;;;5078022;28;19924;-47
2023/08/20 04:31:41;;;;;;;;;;;16.30;99.90;;;;;;5095979;28;20392;-47
2023/08/20 04:34:06;;;;;;;;;;;16.20;99.90;;;;;;5078042;28;20313;-47
2023/08/20 04:36:32;;;;;;;;;;;16.20;99.90;;;;;;5095643;28;20019;-47
2023/08/20 04:38:57;;;;;;;;;;;16.20;99.90;;;;;;5095414;28;19931;-47
2023/08/20 04:41:23;;;;;;;;;;;16.10;99.90;;;;;;5095702;28;20020;-47
2023/08/20 04:43:48;;;;;;;;;;;16.10;99.90;;;;;;5095554;28;19969;-46
2023/08/20 04:46:14;;;;;;;;;;;16.10;99.90;;;;;;5095700;28;19931;-47
2023/08/20 04:48:40;;;;;;;;;;;16.10;99.90;;;;;;5095457;28;19946;-47
2023/08/20 04:51:06;;;;;;;;;;;16.10;99.90;;;;;;5095429;28;19924;-47
2023/08/20 04:53:32;;;;;;;;;;;16.10;99.90;;;;;;5077425;28;19924;-47
2023/08/20 04:55:57;;;;;;;;;;;16.10;99.90;;;;;;5095478;28;19924;-47
2023/08/20 04:58:23;;;;;;;;;;;16.10;99.90;;;;;;5095304;28;20344;-48
2023/08/20 05:00:49;;;;;;;;;;;16.20;99.90;;;;;;5095418;28;19924;-48
2023/08/20 05:03:14;;;;;;;;;;;16.20;99.90;;;;;;5095180;28;19925;-47
2023/08/20 05:05:40;;;;;;;;;;;16.30;99.90;;;;;;5094900;28;19924;-47
2023/08/20 05:08:05;;;;;;;;;;;16.30;99.90;;;;;;5095099;28;19928;-47
2023/08/20 05:10:31;;;;;;;;;;;16.40;99.90;;;;;;5095418;28;19931;-47
2023/08/20 05:12:56;;;;;;;;;;;16.50;99.90;;;;;;5095155;28;19984;-47
2023/08/20 05:15:22;;;;;;;;;;;16.50;99.90;;;;;;5095119;28;19969;-48
2023/08/20 05:17:48;;;;;;;;;;;16.60;99.90;;;;;;5095094;28;19924;-47
2023/08/20 05:20:14;;;;;;;;;;;16.60;99.90;;;;;;5095048;28;19931;-47
2023/08/20 05:22:40;;;;;;;;;;;16.70;99.90;;;;;;5094909;28;19928;-47
2023/08/20 05:25:06;;;;;;;;;;;16.80;99.90;;;;;;5094927;28;19928;-48
2023/08/20 05:27:31;;;;;;;;;;;16.90;99.90;;;;;;5094830;28;19924;-47
2023/08/20 05:29:57;;;;;;;;;;;16.90;99.90;;;;;;5094831;28;19924;-48
2023/08/20 05:32:23;;;;;;;;;;;17.00;99.90;;;;;;5094840;28;19931;-46
2023/08/20 05:34:48;;;;;;;;;;;17.00;99.90;;;;;;5094609;28;20290;-47
2023/08/20 05:37:14;;;;;;;;;;;17.00;99.90;;;;;;5094519;28;19924;-48
2023/08/20 05:39:41;;;;;;;;;;;17.10;99.90;;;;;;5094662;28;19924;-47
2023/08/20 05:42:06;;;;;;;;;;;17.20;99.90;;;;;;5076809;28;19924;-47
2023/08/20 05:44:32;;;;;;;;;;;17.20;99.90;;;;;;5094593;28;19924;-47
2023/08/20 05:46:57;;;;;;;;;;;17.20;99.90;;;;;;5094563;28;20370;-48
2023/08/20 05:49:23;;;;;;;;;;;17.30;99.90;;;;;;5093815;28;19977;-47
2023/08/20 05:51:48;;;;;;;;;;;17.30;99.90;;;;;;5076313;28;19931;-47
2023/08/20 05:54:14;;;;;;;;;;;17.40;99.90;;;;;;5094457;28;19928;-47
2023/08/20 05:56:39;;;;;;;;;;;17.40;99.90;;;;;;5094402;28;19925;-47
2023/08/20 05:59:05;;;;;;;;;;;17.50;99.90;;;;;;5076244;28;19931;-48
2023/08/20 06:01:31;;;;;;;;;;;17.50;99.90;;;;;;5094074;28;19924;-48
2023/08/20 06:03:56;;;;;;;;;;;17.60;99.90;;;;;;5094153;28;19935;-47
2023/08/20 06:06:22;;;;;;;;;;;18.40;99.90;;;;;;5094004;28;19924;-47
2023/08/20 06:08:47;;;;;;;;;;;19.50;99.90;;;;;;5094316;28;19932;-47
2023/08/20 06:11:13;;;;;;;;;;;20.60;99.90;;;;;;5094186;28;19924;-47
2023/08/20 06:13:39;;;;;;;;;;;21.70;99.90;;;;;;5094279;28;19950;-48
2023/08/20 06:16:05;;;;;;;;;;;22.60;99.90;;;;;;5094029;28;19924;-48
2023/08/20 06:18:30;;;;;;;;;;;23.10;99.90;;;;;;5094246;28;19924;-47
2023/08/20 06:20:56;;;;;;;;;;;23.00;99.90;;;;;;5093900;28;20039;-47
2023/08/20 06:23:22;;;;;;;;;;;22.60;99.90;;;;;;5094319;28;19924;-48
2023/08/20 06:25:47;;;;;;;;;;;22.10;99.90;;;;;;5094115;28;20282;-47
2023/08/20 06:28:13;;;;;;;;;;;21.70;99.90;;;;;;5094080;28;19931;-48
2023/08/20 06:30:38;;;;;;;;;;;21.40;99.90;;;;;;5094037;28;20014;-47
2023/08/20 06:33:04;;;;;;;;;;;21.10;99.90;;;;;;5093950;28;20333;-47
2023/08/20 06:35:29;;;;;;;;;;;20.90;99.90;;;;;;5094006;28;20291;-47
2023/08/20 06:37:55;;;;;;;;;;;20.70;99.90;;;;;;5093735;28;19924;-47
2023/08/20 06:40:20;;;;;;;;;;;20.60;99.90;;;;;;5094007;28;20268;-47
2023/08/20 06:42:46;;;;;;;;;;;20.50;99.90;;;;;;5076049;28;19951;-47
2023/08/20 06:45:11;;;;;;;;;;;20.50;99.90;;;;;;5093942;28;19993;-47
2023/08/20 06:47:37;;;;;;;;;;;20.40;99.90;;;;;;5093792;28;19924;-47
2023/08/20 06:50:03;;;;;;;;;;;20.30;99.90;;;;;;5093537;28;19932;-48
2023/08/20 06:52:28;;;;;;;;;;;20.20;99.90;;;;;;5093871;28;19931;-47
2023/08/20 06:54:54;;;;;;;;;;;20.10;99.90;;;;;;5094423;28;19924;-47
2023/08/20 06:57:20;;;;;;;;;;;20.00;99.90;;;;;;5075977;28;19928;-47
2023/08/20 06:59:45;;;;;;;;;;;19.90;99.90;;;;;;5093562;28;19924;-47
2023/08/20 07:02:11;;;;;;;;;;;19.90;99.90;;;;;;5077310;28;19924;-47
2023/08/20 07:04:37;;;;;;;;;;;19.90;99.90;;;;;;5079528;28;19978;-47
2023/08/20 07:07:04;;;;;;;;;;;20.00;99.90;;;;;;5097762;28;20333;-47
2023/08/20 07:09:30;;;;;;;;;;;20.10;99.90;;;;;;5097476;28;20018;-47
2023/08/20 07:11:56;;;;;;;;;;;20.10;99.90;;;;;;5097510;28;20411;-47
2023/08/20 07:14:21;;;;;;;;;;;20.00;99.90;;;;;;5097437;28;19974;-48
2023/08/20 07:16:47;;;;;;;;;;;20.00;99.90;;;;;;5097219;28;19928;-46
2023/08/20 07:19:13;;;;;;;;;;;19.90;99.90;;;;;;5097129;28;20299;-47
2023/08/20 07:21:38;;;;;;;;;;;19.90;99.90;;;;;;5097030;28;19924;-47
2023/08/20 07:24:04;;;;;;;;;;;19.90;99.90;;;;;;5097239;28;19928;-47
2023/08/20 07:26:29;;;;;;;;;;;19.90;99.90;;;;;;5097088;28;19990;-47
2023/08/20 07:28:58;;;;;;;;;;;19.80;99.90;;;;;;5097156;28;19930;-48
2023/08/20 07:31:24;;;;;;;;;;;19.80;99.90;;;;;;5096815;28;19978;-47
2023/08/20 07:33:49;;;;;;;;;;;19.80;99.90;;;;;;5096792;28;19974;-49
2023/08/20 07:36:15;;;;;;;;;;;19.90;99.90;;;;;;5096773;28;20316;-46
2023/08/20 07:38:42;;;;;;;;;;;19.90;99.90;;;;;;5078966;28;19924;-47
2023/08/20 07:41:08;;;;;;;;;;;19.90;99.90;;;;;;5097040;28;20264;-47
2023/08/20 07:43:34;;;;;;;;;;;19.90;99.90;;;;;;5096685;28;19931;-49
2023/08/20 07:45:59;;;;;;;;;;;19.90;99.90;;;;;;5062160;28;19924;-46
2023/08/20 07:48:25;;;;;;;;;;;19.90;99.90;;;;;;5096749;28;20019;-49
2023/08/20 07:50:50;;;;;;;;;;;19.90;99.90;;;;;;5096520;28;19924;-47
2023/08/20 07:53:16;;;;;;;;;;;19.90;99.90;;;;;;5078626;28;19924;-47
2023/08/20 07:55:41;;;;;;;;;;;19.90;99.90;;;;;;5096772;28;19924;-47
2023/08/20 07:58:07;;;;;;;;;;;19.90;99.90;;;;;;5096713;28;19928;-47
2023/08/20 08:00:32;;;;;;;;;;;19.90;99.90;;;;;;5096343;28;20312;-47
2023/08/20 08:02:58;;;;;;;;;;;20.00;99.90;;;;;;5096573;28;19924;-47
2023/08/20 08:05:23;;;;;;;;;;;20.00;99.90;;;;;;5095982;28;20335;-47
2023/08/20 08:07:49;;;;;;;;;;;20.00;99.90;;;;;;5096263;28;19931;-47
2023/08/20 08:10:15;;;;;;;;;;;20.00;99.90;;;;;;5096425;28;20028;-48
2023/08/20 08:12:40;;;;;;;;;;;20.10;99.90;;;;;;5095755;28;20290;-47
2023/08/20 08:15:06;;;;;;;;;;;20.10;99.90;;;;;;5096106;28;19924;-47
2023/08/20 08:17:31;;;;;;;;;;;20.10;99.90;;;;;;5096151;28;19924;-47
2023/08/20 08:19:58;;;;;;;;;;;20.10;99.90;;;;;;5095872;28;19928;-48
2023/08/20 08:22:23;;;;;;;;;;;20.10;99.90;;;;;;5096153;28;19924;-47
2023/08/20 08:24:49;;;;;;;;;;;20.20;99.90;;;;;;5096295;28;20289;-47
2023/08/20 08:27:15;;;;;;;;;;;20.20;99.90;;;;;;5096073;28;19949;-47
2023/08/20 08:29:40;;;;;;;;;;;20.20;99.90;;;;;;5096203;28;20390;-47
2023/08/20 08:32:06;;;;;;;;;;;20.30;99.90;;;;;;5095864;28;19931;-47
2023/08/20 08:34:31;;;;;;;;;;;20.30;99.90;;;;;;5095684;28;19989;-46
2023/08/20 08:36:57;;;;;;;;;;;20.40;99.90;;;;;;5095855;28;19975;-46
2023/08/20 08:39:22;;;;;;;;;;;20.40;99.90;;;;;;5095864;28;19931;-47
2023/08/20 08:41:50;;;;;;;;;;;20.50;99.90;;;;;;5077514;28;19924;-47
2023/08/20 08:44:16;;;;;;;;;;;20.50;99.90;;;;;;5095626;28;20040;-47
2023/08/20 08:46:42;;;;;;;;;;;20.60;99.90;;;;;;5095552;28;19986;-47
2023/08/20 08:49:08;;;;;;;;;;;20.60;99.90;;;;;;5095381;28;19924;-46
2023/08/20 08:51:34;;;;;;;;;;;20.60;99.90;;;;;;5095764;28;19924;-46
2023/08/20 08:54:01;;;;;;;;;;;20.70;99.90;;;;;;5095524;28;20036;-47
2023/08/20 08:56:27;;;;;;;;;;;20.70;99.90;;;;;;5095421;28;19928;-47
2023/08/20 08:58:53;;;;;;;;;;;20.70;99.90;;;;;;5095429;28;19946;-47
2023/08/20 09:01:19;;;;;;;;;;;20.70;99.90;;;;;;5077615;28;20137;-48
2023/08/20 09:03:44;;;;;;;;;;;20.80;99.90;;;;;;5095187;28;20022;-46
2023/08/20 09:06:10;;;;;;;;;;;20.80;99.90;;;;;;5095106;28;19924;-47
2023/08/20 09:08:36;;;;;;;;;;;20.90;99.90;;;;;;5095212;28;19924;-47
2023/08/20 09:11:02;;;;;;;;;;;20.90;99.90;;;;;;5095542;28;19924;-47
2023/08/20 09:13:38;;;;;;;;;;;20.90;99.90;;;;;;5094982;28;19924;-46
2023/08/20 09:16:08;;;;;;;;;;;21.00;99.90;;;;;;5094988;28;20022;-47
2023/08/20 09:18:46;;;;;;;;;;;21.00;99.90;;;;;;5094463;28;19969;-47
2023/08/20 09:21:13;;;;;;;;;;;21.10;99.90;;;;;;5077273;28;19928;-46
2023/08/20 09:23:39;;;;;;;;;;;21.10;99.90;;;;;;5094754;28;19924;-47
2023/08/20 09:26:06;;;;;;;;;;;21.10;99.90;;;;;;5076308;28;19923;-47
2023/08/20 09:28:44;;;;;;;;;;;21.20;99.90;;;;;;5094826;28;19975;-47
2023/08/20 09:31:10;;;;;;;;;;;21.30;99.90;;;;;;5077302;28;19924;-47
2023/08/20 09:33:36;;;;;;;;;;;21.30;99.90;;;;;;5094825;28;19924;-47
2023/08/20 09:36:04;;;;;;;;;;;21.40;99.90;;;;;;5094822;28;20391;-49
2023/08/20 09:38:36;;;;;;;;;;;21.40;99.90;;;;;;5094673;28;19928;-47
2023/08/20 09:41:01;;;;;;;;;;;21.40;99.90;;;;;;5094672;28;19924;-47
2023/08/20 09:43:29;;;;;;;;;;;21.40;99.90;;;;;;5094231;28;19939;-47
2023/08/20 09:45:55;;;;;;;;;;;21.50;99.90;;;;;;5076668;28;20387;-46
2023/08/20 09:48:21;;;;;;;;;;;21.50;99.90;;;;;;5094552;28;19969;-48
2023/08/20 09:50:47;;;;;;;;;;;21.50;99.90;;;;;;5094487;28;19928;-47
2023/08/20 09:53:45;;;;;;;;;;;21.60;99.90;;;;;;5094714;28;20362;-47
2023/08/20 09:56:30;;;;;;;;;;;21.70;99.90;;;;;;5049536;28;20023;-47
2023/08/20 09:59:00;;;;;;;;;;;21.80;99.90;;;;;;5094689;28;19927;-47
2023/08/20 10:01:26;;;;;;;;;;;21.80;99.90;;;;;;5094330;28;19924;-49
2023/08/20 10:03:51;;;;;;;;;;;21.80;99.90;;;;;;5093161;28;19931;-48
2023/08/20 10:06:17;;;;;;;;;;;21.90;99.90;;;;;;5093917;28;19928;-47
2023/08/20 10:08:43;;;;;;;;;;;21.90;99.90;;;;;;5094477;28;20444;-47
2023/08/20 10:11:08;;;;;;;;;;;21.90;99.90;;;;;;5094324;28;19924;-47
2023/08/20 10:13:34;;;;;;;;;;;22.00;99.90;;;;;;5094172;28;19971;-47
2023/08/20 10:16:00;;;;;;;;;;;22.00;99.90;;;;;;5094320;28;19924;-47
2023/08/20 10:18:26;;;;;;;;;;;22.10;99.90;;;;;;5094267;28;19931;-47
2023/08/20 10:20:51;;;;;;;;;;;22.20;99.90;;;;;;5093966;28;19930;-47
2023/08/20 10:23:23;;;;;;;;;;;22.20;99.90;;;;;;5059571;28;20010;-45
2023/08/20 10:25:51;;;;;;;;;;;22.30;99.90;;;;;;5094120;28;19924;-45
2023/08/20 10:28:21;;;;;;;;;;;22.40;99.90;;;;;;5094041;28;19924;-45
2023/08/20 10:31:09;;;;;;;;;;;22.50;99.90;;;;;;5093856;28;19924;-45
2023/08/20 10:33:35;;;;;;;;;;;22.60;99.90;;;;;;5094191;28;19928;-46
2023/08/20 10:36:13;;;;;;;;;;;22.60;99.90;;;;;;5095149;28;19924;-45
2023/08/20 10:38:39;;;;;;;;;;;22.60;99.90;;;;;;5080055;28;19976;-45
2023/08/20 10:41:08;;;;;;;;;;;22.70;99.90;;;;;;5097951;28;19924;-45
2023/08/20 10:43:38;;;;;;;;;;;22.80;99.90;;;;;;5079926;28;19924;-45
2023/08/20 10:46:07;;;;;;;;;;;23.00;99.90;;;;;;5097743;28;19947;-45
2023/08/20 10:48:36;;;;;;;;;;;23.10;99.90;;;;;;5097900;28;20378;-45
2023/08/20 10:51:06;;;;;;;;;;;23.20;99.90;;;;;;5080291;28;19924;-46
2023/08/20 10:53:31;;;;;;;;;;;23.30;99.90;;;;;;5097782;28;20367;-46
2023/08/20 10:56:06;;;;;;;;;;;23.40;99.90;;;;;;5080008;28;19935;-47
2023/08/20 10:58:32;;;;;;;;;;;23.50;99.90;;;;;;5097683;28;19924;-46
2023/08/20 11:01:17;;;;;;;;;;;23.50;99.90;;;;;;5097759;28;19931;-47
2023/08/20 11:03:43;;;;;;;;;;;23.60;99.90;;;;;;5079542;28;19928;-46
2023/08/20 11:06:10;;;;;;;;;;;23.60;99.90;;;;;;5097141;28;19947;-47
2023/08/20 11:08:36;;;;;;;;;;;23.60;99.90;;;;;;5097665;28;19931;-46
2023/08/20 11:11:02;;;;;;;;;;;23.70;99.90;;;;;;5079336;28;19928;-48
2023/08/20 11:13:27;;;;;;;;;;;23.80;99.90;;;;;;5097897;28;20337;-47
2023/08/20 11:15:53;;;;;;;;;;;24.00;99.90;;;;;;5097291;28;19932;-48
2023/08/20 11:18:18;;;;;;;;;;;24.10;99.90;;;;;;5097358;28;19979;-49
2023/08/20 11:20:44;;;;;;;;;;;24.30;99.90;;;;;;5097192;28;19978;-48
2023/08/20 11:23:12;;;;;;;;;;;24.40;99.90;;;;;;5097286;28;19924;-49
2023/08/20 11:25:41;;;;;;;;;;;24.60;99.90;;;;;;5097041;28;20019;-48
2023/08/20 11:28:07;;;;;;;;;;;24.70;99.90;;;;;;5097264;28;20327;-46
2023/08/20 11:30:32;;;;;;;;;;;24.80;99.90;;;;;;5097271;28;19924;-46
2023/08/20 11:32:58;;;;;;;;;;;24.90;99.90;;;;;;5096956;28;19924;-45
2023/08/20 11:35:24;;;;;;;;;;;25.00;99.90;;;;;;5097081;28;19924;-47
2023/08/20 11:37:49;;;;;;;;;;;25.10;99.90;;;;;;5097032;28;19982;-46
2023/08/20 11:40:15;;;;;;;;;;;25.10;99.90;;;;;;5096786;28;19983;-45
2023/08/20 11:42:40;;;;;;;;;;;25.20;99.90;;;;;;5078927;28;19924;-46
2023/08/20 11:45:09;;;;;;;;;;;25.30;99.90;;;;;;5097356;28;19931;-47
2023/08/20 11:47:38;;;;;;;;;;;25.40;99.90;;;;;;5095712;28;19924;-46
2023/08/20 11:50:04;;;;;;;;;;;25.50;99.90;;;;;;5096500;28;19950;-50
2023/08/20 11:52:31;;;;;;;;;;;25.60;99.90;;;;;;5096507;28;19924;-46
2023/08/20 11:54:56;;;;;;;;;;;25.70;99.90;;;;;;5078837;28;19924;-48
2023/08/20 11:57:22;;;;;;;;;;;25.80;99.90;;;;;;5096538;28;19924;-48
2023/08/20 11:59:47;;;;;;;;;;;25.80;99.90;;;;;;5096617;28;20390;-48
2023/08/20 12:02:13;;;;;;;;;;;25.80;99.90;;;;;;5096593;28;19924;-46
2023/08/20 12:04:38;;;;;;;;;;;25.70;99.90;;;;;;5096317;28;19930;-52
2023/08/20 12:07:05;;;;;;;;;;;25.70;99.90;;;;;;5096340;28;19969;-43
2023/08/20 12:09:31;;;;;;;;;;;25.70;99.90;;;;;;5096274;28;19935;-43
2023/08/20 12:11:57;;;;;;;;;;;25.70;99.90;;;;;;5096570;28;19928;-45
2023/08/20 12:14:23;;;;;;;;;;;25.70;99.90;;;;;;5078475;28;20023;-46
2023/08/20 12:16:52;;;;;;;;;;;25.80;99.90;;;;;;5096233;28;20367;-46
2023/08/20 12:19:17;;;;;;;;;;;25.80;99.90;;;;;;5096155;28;19928;-47
2023/08/20 12:21:43;;;;;;;;;;;25.90;99.90;;;;;;5095720;28;19969;-47
2023/08/20 12:24:09;;;;;;;;;;;25.90;99.90;;;;;;5095844;28;19971;-45
2023/08/20 12:26:38;;;;;;;;;;;26.00;99.90;;;;;;5095996;28;19924;-46
2023/08/20 12:29:03;;;;;;;;;;;26.00;99.90;;;;;;5096063;28;19924;-47
2023/08/20 12:31:29;;;;;;;;;;;26.10;99.90;;;;;;5095882;28;19925;-45
2023/08/20 12:33:54;;;;;;;;;;;26.00;99.90;;;;;;5078138;28;19924;-45
2023/08/20 12:36:20;;;;;;;;;;;26.10;99.90;;;;;;5095745;28;19964;-46
2023/08/20 12:38:46;;;;;;;;;;;26.10;99.90;;;;;;5077577;28;19932;-46
2023/08/20 12:41:11;;;;;;;;;;;26.00;99.90;;;;;;5096444;28;19932;-45
2023/08/20 12:43:37;;;;;;;;;;;25.90;99.90;;;;;;5095652;28;20371;-45
2023/08/20 12:46:03;;;;;;;;;;;25.80;99.90;;;;;;5095636;28;20409;-46
2023/08/20 12:48:29;;;;;;;;;;;25.90;99.90;;;;;;5095612;28;19931;-46
2023/08/20 12:50:55;;;;;;;;;;;25.90;99.90;;;;;;5095413;28;19947;-46
2023/08/20 12:53:21;;;;;;;;;;;26.00;99.90;;;;;;5094660;28;20398;-46
2023/08/20 12:55:46;;;;;;;;;;;26.00;99.90;;;;;;5095846;28;20018;-47
2023/08/20 12:58:12;;;;;;;;;;;26.10;99.90;;;;;;5077705;28;19924;-47
2023/08/20 13:00:38;;;;;;;;;;;26.20;99.90;;;;;;5095001;28;20343;-47
2023/08/20 13:03:03;;;;;;;;;;;26.20;99.90;;;;;;5095274;28;19931;-45
2023/08/20 13:05:29;;;;;;;;;;;26.10;99.90;;;;;;5077288;28;19924;-48
2023/08/20 13:07:55;;;;;;;;;;;25.90;99.90;;;;;;5095606;28;19924;-46
2023/08/20 13:10:21;;;;;;;;;;;25.80;99.90;;;;;;5095609;28;19924;-47
2023/08/20 13:12:53;;;;;;;;;;;25.70;99.90;;;;;;5095196;28;19950;-47
2023/08/20 13:15:20;;;;;;;;;;;25.70;99.90;;;;;;5094950;28;19928;-53
2023/08/20 13:17:47;;;;;;;;;;;25.70;99.90;;;;;;5077239;28;19924;-48
2023/08/20 13:20:14;;;;;;;;;;;25.70;99.90;;;;;;5094878;28;20391;-47
2023/08/20 13:22:39;;;;;;;;;;;25.80;99.90;;;;;;5094797;28;19924;-47
2023/08/20 13:25:05;;;;;;;;;;;25.80;99.90;;;;;;5076703;28;19931;-47
2023/08/20 13:27:31;;;;;;;;;;;25.80;99.90;;;;;;5060670;28;19931;-48
2023/08/20 13:29:56;;;;;;;;;;;25.70;99.90;;;;;;5060174;28;19936;-47
2023/08/20 13:32:22;;;;;;;;;;;25.70;99.90;;;;;;5094654;28;19977;-47
2023/08/20 13:34:49;;;;;;;;;;;25.70;99.90;;;;;;5076885;28;19924;-47
2023/08/20 13:37:14;;;;;;;;;;;25.60;99.90;;;;;;5094526;28;20019;-47
2023/08/20 13:39:40;;;;;;;;;;;25.50;99.90;;;;;;5076948;28;19967;-47
2023/08/20 13:42:05;;;;;;;;;;;25.50;99.90;;;;;;5094913;28;19924;-47
2023/08/20 13:44:31;;;;;;;;;;;25.60;99.90;;;;;;5076607;28;19924;-46
2023/08/20 13:46:57;;;;;;;;;;;25.70;99.90;;;;;;5094536;28;19951;-47
2023/08/20 13:49:22;;;;;;;;;;;25.60;99.90;;;;;;5094545;28;20290;-46
2023/08/20 13:51:48;;;;;;;;;;;25.50;99.90;;;;;;5094441;28;20018;-47
2023/08/20 13:54:13;;;;;;;;;;;25.50;99.90;;;;;;5094559;28;19924;-47
2023/08/20 13:56:39;;;;;;;;;;;25.50;99.90;;;;;;5094418;28;19971;-49
2023/08/20 13:59:04;;;;;;;;;;;25.50;99.90;;;;;;5094339;28;19924;-46
2023/08/20 14:01:30;;;;;;;;;;;25.50;99.90;;;;;;5094325;28;19924;-47
2023/08/20 14:03:55;;;;;;;;;;;25.50;99.90;;;;;;5094153;28;20294;-47
2023/08/20 14:06:21;;;;;;;;;;;25.50;99.90;;;;;;5093907;28;19975;-47
2023/08/20 14:08:48;;;;;;;;;;;25.50;99.90;;;;;;5094336;28;20367;-46
2023/08/20 14:11:13;;;;;;;;;;;25.50;99.90;;;;;;5093879;28;19925;-47